sensor_id;sensor_type;location;lat;lon;timestamp;P1;durP1;ratioP1;P2;durP2;ratioP2
71288;SDS011;59068;52.502;9.860;2024-02-21T00:01:15;21.53;;;13.27;;
71288;SDS011;59068;52.502;9.860;2024-02-21T00:03:43;18.53;;;12.40;;
71288;SDS011;59068;52.502;9.860;2024-02-21T00:06:10;21.43;;;13.20;;
71288;SDS011;59068;52.502;9.860;2024-02-21T00:08:36;20.10;;;12.93;;
71288;SDS011;59068;52.502;9.860;2024-02-21T00:11:04;21.43;;;13.70;;
71288;SDS011;59068;52.502;9.860;2024-02-21T00:13:30;25.37;;;14.10;;
71288;SDS011;59068;52.502;9.860;2024-02-21T00:15:57;21.80;;;13.37;;
71288;SDS011;59068;52.502;9.860;2024-02-21T00:18:23;20.57;;;14.60;;
71288;SDS011;59068;52.502;9.860;2024-02-21T00:20:49;19.93;;;13.77;;
71288;SDS011;59068;52.502;9.860;2024-02-21T00:23:17;25.23;;;14.20;;
71288;SDS011;59068;52.502;9.860;2024-02-21T00:25:44;22.47;;;14.20;;
71288;SDS011;59068;52.502;9.860;2024-02-21T00:28:12;20.90;;;13.73;;
71288;SDS011;59068;52.502;9.860;2024-02-21T00:30:38;23.27;;;14.77;;
71288;SDS011;59068;52.502;9.860;2024-02-21T00:33:06;20.37;;;13.73;;
71288;SDS011;59068;52.502;9.860;2024-02-21T00:35:33;23.93;;;14.43;;
71288;SDS011;59068;52.502;9.860;2024-02-21T00:38:01;22.00;;;14.37;;
71288;SDS011;59068;52.502;9.860;2024-02-21T00:40:28;20.17;;;14.50;;
71288;SDS011;59068;52.502;9.860;2024-02-21T00:42:54;19.40;;;12.97;;
71288;SDS011;59068;52.502;9.860;2024-02-21T00:45:22;17.30;;;12.10;;
71288;SDS011;59068;52.502;9.860;2024-02-21T00:47:49;23.47;;;14.67;;
71288;SDS011;59068;52.502;9.860;2024-02-21T00:50:15;21.93;;;13.83;;
71288;SDS011;59068;52.502;9.860;2024-02-21T00:52:42;23.00;;;15.83;;
71288;SDS011;59068;52.502;9.860;2024-02-21T00:55:09;22.07;;;14.20;;
71288;SDS011;59068;52.502;9.860;2024-02-21T00:57:37;21.53;;;15.60;;
71288;SDS011;59068;52.502;9.860;2024-02-21T01:00:05;20.87;;;14.50;;
71288;SDS011;59068;52.502;9.860;2024-02-21T01:02:34;26.97;;;16.60;;
71288;SDS011;59068;52.502;9.860;2024-02-21T01:05:01;26.33;;;16.30;;
71288;SDS011;59068;52.502;9.860;2024-02-21T01:07:28;18.63;;;13.70;;
71288;SDS011;59068;52.502;9.860;2024-02-21T01:09:55;24.10;;;14.93;;
71288;SDS011;59068;52.502;9.860;2024-02-21T01:12:22;22.90;;;15.73;;
71288;SDS011;59068;52.502;9.860;2024-02-21T01:14:48;21.90;;;15.00;;
71288;SDS011;59068;52.502;9.860;2024-02-21T01:17:15;20.23;;;14.20;;
71288;SDS011;59068;52.502;9.860;2024-02-21T01:19:43;25.87;;;15.90;;
71288;SDS011;59068;52.502;9.860;2024-02-21T01:22:09;21.07;;;13.53;;
71288;SDS011;59068;52.502;9.860;2024-02-21T01:24:35;21.97;;;15.63;;
71288;SDS011;59068;52.502;9.860;2024-02-21T01:27:02;24.13;;;15.40;;
71288;SDS011;59068;52.502;9.860;2024-02-21T01:29:28;27.13;;;15.57;;
71288;SDS011;59068;52.502;9.860;2024-02-21T01:31:56;22.03;;;15.33;;
71288;SDS011;59068;52.502;9.860;2024-02-21T01:34:22;21.33;;;13.90;;
71288;SDS011;59068;52.502;9.860;2024-02-21T01:36:50;25.03;;;14.93;;
71288;SDS011;59068;52.502;9.860;2024-02-21T01:39:16;21.87;;;15.33;;
71288;SDS011;59068;52.502;9.860;2024-02-21T01:41:43;24.97;;;15.53;;
71288;SDS011;59068;52.502;9.860;2024-02-21T01:44:10;21.53;;;15.07;;
71288;SDS011;59068;52.502;9.860;2024-02-21T01:46:36;20.87;;;13.47;;
71288;SDS011;59068;52.502;9.860;2024-02-21T01:49:03;22.60;;;15.47;;
71288;SDS011;59068;52.502;9.860;2024-02-21T01:51:30;22.40;;;14.93;;
71288;SDS011;59068;52.502;9.860;2024-02-21T01:53:58;21.30;;;15.47;;
71288;SDS011;59068;52.502;9.860;2024-02-21T01:56:24;23.60;;;15.10;;
71288;SDS011;59068;52.502;9.860;2024-02-21T01:58:51;23.47;;;15.57;;
71288;SDS011;59068;52.502;9.860;2024-02-21T02:01:17;25.53;;;16.10;;
71288;SDS011;59068;52.502;9.860;2024-02-21T02:03:45;19.60;;;15.17;;
71288;SDS011;59068;52.502;9.860;2024-02-21T02:06:12;22.77;;;15.30;;
71288;SDS011;59068;52.502;9.860;2024-02-21T02:08:39;23.60;;;15.27;;
71288;SDS011;59068;52.502;9.860;2024-02-21T02:11:06;21.80;;;15.23;;
71288;SDS011;59068;52.502;9.860;2024-02-21T02:13:33;21.03;;;14.97;;
71288;SDS011;59068;52.502;9.860;2024-02-21T02:15:59;21.53;;;14.60;;
71288;SDS011;59068;52.502;9.860;2024-02-21T02:18:27;21.13;;;15.30;;
71288;SDS011;59068;52.502;9.860;2024-02-21T02:20:54;20.07;;;14.03;;
71288;SDS011;59068;52.502;9.860;2024-02-21T02:23:25;24.00;;;15.83;;
71288;SDS011;59068;52.502;9.860;2024-02-21T02:25:53;20.63;;;14.37;;
71288;SDS011;59068;52.502;9.860;2024-02-21T02:28:20;20.47;;;14.70;;
71288;SDS011;59068;52.502;9.860;2024-02-21T02:30:52;21.07;;;14.43;;
71288;SDS011;59068;52.502;9.860;2024-02-21T02:33:19;19.47;;;14.07;;
71288;SDS011;59068;52.502;9.860;2024-02-21T02:35:49;20.30;;;14.90;;
71288;SDS011;59068;52.502;9.860;2024-02-21T02:38:16;19.70;;;13.60;;
71288;SDS011;59068;52.502;9.860;2024-02-21T02:40:45;20.83;;;15.60;;
71288;SDS011;59068;52.502;9.860;2024-02-21T02:43:13;22.30;;;12.87;;
71288;SDS011;59068;52.502;9.860;2024-02-21T02:45:39;19.30;;;14.53;;
71288;SDS011;59068;52.502;9.860;2024-02-21T02:48:06;19.77;;;13.90;;
71288;SDS011;59068;52.502;9.860;2024-02-21T02:50:33;18.87;;;14.23;;
71288;SDS011;59068;52.502;9.860;2024-02-21T02:52:59;18.10;;;12.63;;
71288;SDS011;59068;52.502;9.860;2024-02-21T02:55:27;17.93;;;12.73;;
71288;SDS011;59068;52.502;9.860;2024-02-21T02:57:55;20.80;;;13.93;;
71288;SDS011;59068;52.502;9.860;2024-02-21T03:00:22;22.20;;;14.13;;
71288;SDS011;59068;52.502;9.860;2024-02-21T03:02:49;20.73;;;13.43;;
71288;SDS011;59068;52.502;9.860;2024-02-21T03:05:17;23.57;;;15.17;;
71288;SDS011;59068;52.502;9.860;2024-02-21T03:07:43;20.47;;;13.83;;
71288;SDS011;59068;52.502;9.860;2024-02-21T03:10:10;20.23;;;13.50;;
71288;SDS011;59068;52.502;9.860;2024-02-21T03:12:36;21.07;;;13.83;;
71288;SDS011;59068;52.502;9.860;2024-02-21T03:15:05;18.00;;;14.47;;
71288;SDS011;59068;52.502;9.860;2024-02-21T03:17:31;16.00;;;10.43;;
71288;SDS011;59068;52.502;9.860;2024-02-21T03:19:59;17.70;;;13.40;;
71288;SDS011;59068;52.502;9.860;2024-02-21T03:22:26;18.33;;;14.00;;
71288;SDS011;59068;52.502;9.860;2024-02-21T03:24:52;18.97;;;13.43;;
71288;SDS011;59068;52.502;9.860;2024-02-21T03:27:18;19.77;;;14.47;;
71288;SDS011;59068;52.502;9.860;2024-02-21T03:29:45;17.50;;;13.80;;
71288;SDS011;59068;52.502;9.860;2024-02-21T03:32:12;21.07;;;14.40;;
71288;SDS011;59068;52.502;9.860;2024-02-21T03:34:40;19.10;;;14.10;;
71288;SDS011;59068;52.502;9.860;2024-02-21T03:37:07;20.67;;;13.73;;
71288;SDS011;59068;52.502;9.860;2024-02-21T03:39:35;18.03;;;13.00;;
71288;SDS011;59068;52.502;9.860;2024-02-21T03:42:03;19.07;;;13.23;;
71288;SDS011;59068;52.502;9.860;2024-02-21T03:44:30;18.27;;;13.87;;
71288;SDS011;59068;52.502;9.860;2024-02-21T03:46:57;21.40;;;14.03;;
71288;SDS011;59068;52.502;9.860;2024-02-21T03:49:24;18.53;;;13.70;;
71288;SDS011;59068;52.502;9.860;2024-02-21T03:51:52;20.00;;;13.30;;
71288;SDS011;59068;52.502;9.860;2024-02-21T03:54:20;20.47;;;13.87;;
71288;SDS011;59068;52.502;9.860;2024-02-21T03:56:47;19.33;;;12.17;;
71288;SDS011;59068;52.502;9.860;2024-02-21T03:59:15;18.53;;;13.53;;
71288;SDS011;59068;52.502;9.860;2024-02-21T04:01:43;18.43;;;14.20;;
71288;SDS011;59068;52.502;9.860;2024-02-21T04:04:09;15.97;;;12.83;;
71288;SDS011;59068;52.502;9.860;2024-02-21T04:06:38;16.00;;;12.87;;
71288;SDS011;59068;52.502;9.860;2024-02-21T04:09:13;20.30;;;13.73;;
71288;SDS011;59068;52.502;9.860;2024-02-21T04:11:43;20.13;;;13.27;;
71288;SDS011;59068;52.502;9.860;2024-02-21T04:14:11;18.37;;;12.10;;
71288;SDS011;59068;52.502;9.860;2024-02-21T04:16:37;18.27;;;13.43;;
71288;SDS011;59068;52.502;9.860;2024-02-21T04:19:05;19.77;;;13.00;;
71288;SDS011;59068;52.502;9.860;2024-02-21T04:21:32;21.40;;;15.23;;
71288;SDS011;59068;52.502;9.860;2024-02-21T04:24:00;19.77;;;14.60;;
71288;SDS011;59068;52.502;9.860;2024-02-21T04:26:30;19.53;;;11.97;;
71288;SDS011;59068;52.502;9.860;2024-02-21T04:28:57;19.53;;;13.37;;
71288;SDS011;59068;52.502;9.860;2024-02-21T04:31:25;23.77;;;15.07;;
71288;SDS011;59068;52.502;9.860;2024-02-21T04:33:52;17.20;;;13.80;;
71288;SDS011;59068;52.502;9.860;2024-02-21T04:36:19;20.50;;;14.70;;
71288;SDS011;59068;52.502;9.860;2024-02-21T04:38:45;18.47;;;13.13;;
71288;SDS011;59068;52.502;9.860;2024-02-21T04:41:13;19.70;;;13.97;;
71288;SDS011;59068;52.502;9.860;2024-02-21T04:43:39;18.93;;;13.37;;
71288;SDS011;59068;52.502;9.860;2024-02-21T04:46:06;19.73;;;13.23;;
71288;SDS011;59068;52.502;9.860;2024-02-21T04:48:32;23.77;;;15.23;;
71288;SDS011;59068;52.502;9.860;2024-02-21T04:50:59;20.40;;;14.40;;
71288;SDS011;59068;52.502;9.860;2024-02-21T04:53:28;25.50;;;14.60;;
71288;SDS011;59068;52.502;9.860;2024-02-21T04:55:54;23.23;;;15.23;;
71288;SDS011;59068;52.502;9.860;2024-02-21T04:58:22;20.60;;;14.80;;
71288;SDS011;59068;52.502;9.860;2024-02-21T05:00:51;18.87;;;14.27;;
71288;SDS011;59068;52.502;9.860;2024-02-21T05:03:18;18.93;;;12.87;;
71288;SDS011;59068;52.502;9.860;2024-02-21T05:05:46;21.23;;;13.70;;
71288;SDS011;59068;52.502;9.860;2024-02-21T05:08:12;21.03;;;12.73;;
71288;SDS011;59068;52.502;9.860;2024-02-21T05:10:40;23.57;;;14.63;;
71288;SDS011;59068;52.502;9.860;2024-02-21T05:13:08;21.83;;;14.50;;
71288;SDS011;59068;52.502;9.860;2024-02-21T05:15:36;19.60;;;12.73;;
71288;SDS011;59068;52.502;9.860;2024-02-21T05:18:04;21.40;;;14.07;;
71288;SDS011;59068;52.502;9.860;2024-02-21T05:20:30;25.30;;;14.57;;
71288;SDS011;59068;52.502;9.860;2024-02-21T05:22:57;22.63;;;16.13;;
71288;SDS011;59068;52.502;9.860;2024-02-21T05:25:25;20.83;;;15.40;;
71288;SDS011;59068;52.502;9.860;2024-02-21T05:27:53;23.90;;;16.10;;
71288;SDS011;59068;52.502;9.860;2024-02-21T05:30:20;18.07;;;12.07;;
71288;SDS011;59068;52.502;9.860;2024-02-21T05:32:48;19.30;;;13.80;;
71288;SDS011;59068;52.502;9.860;2024-02-21T05:35:15;25.20;;;15.20;;
71288;SDS011;59068;52.502;9.860;2024-02-21T05:37:41;22.00;;;14.80;;
71288;SDS011;59068;52.502;9.860;2024-02-21T05:40:08;19.70;;;14.83;;
71288;SDS011;59068;52.502;9.860;2024-02-21T05:42:37;26.03;;;17.63;;
71288;SDS011;59068;52.502;9.860;2024-02-21T05:45:04;22.17;;;15.30;;
71288;SDS011;59068;52.502;9.860;2024-02-21T05:47:32;23.90;;;15.23;;
71288;SDS011;59068;52.502;9.860;2024-02-21T05:50:01;25.03;;;17.27;;
71288;SDS011;59068;52.502;9.860;2024-02-21T05:52:29;22.10;;;15.67;;
71288;SDS011;59068;52.502;9.860;2024-02-21T05:54:57;23.13;;;15.93;;
71288;SDS011;59068;52.502;9.860;2024-02-21T05:57:23;19.83;;;14.77;;
71288;SDS011;59068;52.502;9.860;2024-02-21T05:59:50;24.10;;;16.23;;
71288;SDS011;59068;52.502;9.860;2024-02-21T06:02:17;25.73;;;16.57;;
71288;SDS011;59068;52.502;9.860;2024-02-21T06:04:47;24.90;;;17.73;;
71288;SDS011;59068;52.502;9.860;2024-02-21T06:07:15;23.93;;;15.77;;
71288;SDS011;59068;52.502;9.860;2024-02-21T06:09:41;21.40;;;16.60;;
71288;SDS011;59068;52.502;9.860;2024-02-21T06:12:08;19.40;;;14.80;;
71288;SDS011;59068;52.502;9.860;2024-02-21T06:14:35;22.90;;;16.00;;
71288;SDS011;59068;52.502;9.860;2024-02-21T06:17:02;26.73;;;15.43;;
71288;SDS011;59068;52.502;9.860;2024-02-21T06:19:28;23.93;;;16.87;;
71288;SDS011;59068;52.502;9.860;2024-02-21T06:21:55;25.97;;;16.60;;
71288;SDS011;59068;52.502;9.860;2024-02-21T06:24:22;20.77;;;15.57;;
71288;SDS011;59068;52.502;9.860;2024-02-21T06:26:50;23.57;;;17.37;;
71288;SDS011;59068;52.502;9.860;2024-02-21T06:29:17;23.53;;;15.73;;
71288;SDS011;59068;52.502;9.860;2024-02-21T06:31:45;23.47;;;16.90;;
71288;SDS011;59068;52.502;9.860;2024-02-21T06:34:12;25.60;;;16.60;;
71288;SDS011;59068;52.502;9.860;2024-02-21T06:36:40;24.23;;;17.07;;
71288;SDS011;59068;52.502;9.860;2024-02-21T06:39:07;24.60;;;16.97;;
71288;SDS011;59068;52.502;9.860;2024-02-21T06:41:34;22.07;;;15.77;;
71288;SDS011;59068;52.502;9.860;2024-02-21T06:44:01;26.37;;;17.13;;
71288;SDS011;59068;52.502;9.860;2024-02-21T06:46:27;24.73;;;16.53;;
71288;SDS011;59068;52.502;9.860;2024-02-21T06:48:54;20.77;;;15.07;;
71288;SDS011;59068;52.502;9.860;2024-02-21T06:51:22;27.60;;;19.70;;
71288;SDS011;59068;52.502;9.860;2024-02-21T06:53:49;27.80;;;18.10;;
71288;SDS011;59068;52.502;9.860;2024-02-21T06:56:15;25.83;;;16.20;;
71288;SDS011;59068;52.502;9.860;2024-02-21T06:58:43;28.03;;;17.97;;
71288;SDS011;59068;52.502;9.860;2024-02-21T07:01:09;25.53;;;17.00;;
71288;SDS011;59068;52.502;9.860;2024-02-21T07:03:36;21.13;;;16.30;;
71288;SDS011;59068;52.502;9.860;2024-02-21T07:06:03;25.17;;;16.77;;
71288;SDS011;59068;52.502;9.860;2024-02-21T07:08:29;21.10;;;15.73;;
71288;SDS011;59068;52.502;9.860;2024-02-21T07:10:56;21.77;;;16.27;;
71288;SDS011;59068;52.502;9.860;2024-02-21T07:13:22;22.00;;;15.93;;
71288;SDS011;59068;52.502;9.860;2024-02-21T07:15:50;21.87;;;17.77;;
71288;SDS011;59068;52.502;9.860;2024-02-21T07:18:16;22.33;;;17.07;;
71288;SDS011;59068;52.502;9.860;2024-02-21T07:20:43;22.60;;;17.07;;
71288;SDS011;59068;52.502;9.860;2024-02-21T07:23:09;23.37;;;15.87;;
71288;SDS011;59068;52.502;9.860;2024-02-21T07:25:36;22.50;;;17.67;;
71288;SDS011;59068;52.502;9.860;2024-02-21T07:28:03;23.33;;;17.13;;
71288;SDS011;59068;52.502;9.860;2024-02-21T07:30:30;25.20;;;17.63;;
71288;SDS011;59068;52.502;9.860;2024-02-21T07:32:57;23.63;;;16.73;;
71288;SDS011;59068;52.502;9.860;2024-02-21T07:35:24;22.70;;;16.93;;
71288;SDS011;59068;52.502;9.860;2024-02-21T07:37:50;20.73;;;16.03;;
71288;SDS011;59068;52.502;9.860;2024-02-21T07:40:17;22.73;;;17.07;;
71288;SDS011;59068;52.502;9.860;2024-02-21T07:42:43;19.67;;;14.20;;
71288;SDS011;59068;52.502;9.860;2024-02-21T07:45:10;22.23;;;16.20;;
71288;SDS011;59068;52.502;9.860;2024-02-21T07:47:36;26.33;;;18.27;;
71288;SDS011;59068;52.502;9.860;2024-02-21T07:50:05;23.97;;;17.00;;
71288;SDS011;59068;52.502;9.860;2024-02-21T07:52:32;23.13;;;17.13;;
71288;SDS011;59068;52.502;9.860;2024-02-21T07:54:58;20.10;;;14.83;;
71288;SDS011;59068;52.502;9.860;2024-02-21T07:57:25;24.23;;;16.03;;
71288;SDS011;59068;52.502;9.860;2024-02-21T07:59:51;25.13;;;17.53;;
71288;SDS011;59068;52.502;9.860;2024-02-21T08:02:18;24.10;;;16.73;;
71288;SDS011;59068;52.502;9.860;2024-02-21T08:04:44;23.23;;;16.20;;
71288;SDS011;59068;52.502;9.860;2024-02-21T08:07:12;22.47;;;16.27;;
71288;SDS011;59068;52.502;9.860;2024-02-21T08:09:39;21.00;;;16.67;;
71288;SDS011;59068;52.502;9.860;2024-02-21T08:12:06;21.07;;;15.77;;
71288;SDS011;59068;52.502;9.860;2024-02-21T08:14:32;20.63;;;14.77;;
71288;SDS011;59068;52.502;9.860;2024-02-21T08:16:59;19.47;;;14.73;;
71288;SDS011;59068;52.502;9.860;2024-02-21T08:19:25;20.37;;;16.93;;
71288;SDS011;59068;52.502;9.860;2024-02-21T08:21:51;22.93;;;16.50;;
71288;SDS011;59068;52.502;9.860;2024-02-21T08:24:19;24.50;;;16.87;;
71288;SDS011;59068;52.502;9.860;2024-02-21T08:26:47;23.60;;;15.73;;
71288;SDS011;59068;52.502;9.860;2024-02-21T08:29:14;21.23;;;15.33;;
71288;SDS011;59068;52.502;9.860;2024-02-21T08:31:40;22.57;;;15.43;;
71288;SDS011;59068;52.502;9.860;2024-02-21T08:34:07;20.57;;;14.23;;
71288;SDS011;59068;52.502;9.860;2024-02-21T08:36:34;22.00;;;15.40;;
71288;SDS011;59068;52.502;9.860;2024-02-21T08:39:00;14.13;;;12.30;;
71288;SDS011;59068;52.502;9.860;2024-02-21T08:41:29;18.97;;;14.87;;
71288;SDS011;59068;52.502;9.860;2024-02-21T08:43:56;15.13;;;12.80;;
71288;SDS011;59068;52.502;9.860;2024-02-21T08:46:23;14.97;;;13.37;;
71288;SDS011;59068;52.502;9.860;2024-02-21T08:48:50;22.87;;;15.10;;
71288;SDS011;59068;52.502;9.860;2024-02-21T08:51:17;18.60;;;14.10;;
71288;SDS011;59068;52.502;9.860;2024-02-21T08:53:43;18.83;;;14.87;;
71288;SDS011;59068;52.502;9.860;2024-02-21T08:56:11;15.83;;;13.53;;
71288;SDS011;59068;52.502;9.860;2024-02-21T08:58:39;19.47;;;14.40;;
71288;SDS011;59068;52.502;9.860;2024-02-21T09:01:06;19.57;;;14.40;;
71288;SDS011;59068;52.502;9.860;2024-02-21T09:03:35;18.03;;;12.43;;
71288;SDS011;59068;52.502;9.860;2024-02-21T09:06:02;19.47;;;13.57;;
71288;SDS011;59068;52.502;9.860;2024-02-21T09:08:28;16.90;;;13.50;;
71288;SDS011;59068;52.502;9.860;2024-02-21T09:10:55;19.27;;;13.70;;
71288;SDS011;59068;52.502;9.860;2024-02-21T09:13:21;17.73;;;14.40;;
71288;SDS011;59068;52.502;9.860;2024-02-21T09:15:50;15.43;;;12.40;;
71288;SDS011;59068;52.502;9.860;2024-02-21T09:18:16;19.13;;;13.27;;
71288;SDS011;59068;52.502;9.860;2024-02-21T09:20:43;17.33;;;12.93;;
71288;SDS011;59068;52.502;9.860;2024-02-21T09:23:09;14.00;;;10.87;;
71288;SDS011;59068;52.502;9.860;2024-02-21T09:25:35;16.53;;;10.57;;
71288;SDS011;59068;52.502;9.860;2024-02-21T09:28:02;15.00;;;10.23;;
71288;SDS011;59068;52.502;9.860;2024-02-21T09:30:29;13.07;;;9.57;;
71288;SDS011;59068;52.502;9.860;2024-02-21T09:32:58;12.50;;;9.53;;
71288;SDS011;59068;52.502;9.860;2024-02-21T09:35:26;14.53;;;8.93;;
71288;SDS011;59068;52.502;9.860;2024-02-21T09:37:52;12.63;;;9.10;;
71288;SDS011;59068;52.502;9.860;2024-02-21T09:40:19;14.67;;;8.53;;
71288;SDS011;59068;52.502;9.860;2024-02-21T09:42:46;15.40;;;8.20;;
71288;SDS011;59068;52.502;9.860;2024-02-21T09:45:13;8.40;;;7.10;;
71288;SDS011;59068;52.502;9.860;2024-02-21T09:47:43;9.70;;;7.33;;
71288;SDS011;59068;52.502;9.860;2024-02-21T09:50:13;12.67;;;7.87;;
71288;SDS011;59068;52.502;9.860;2024-02-21T09:52:40;9.33;;;7.00;;
71288;SDS011;59068;52.502;9.860;2024-02-21T09:55:07;10.33;;;6.50;;
71288;SDS011;59068;52.502;9.860;2024-02-21T09:57:35;13.33;;;7.53;;
71288;SDS011;59068;52.502;9.860;2024-02-21T10:00:03;9.30;;;6.10;;
71288;SDS011;59068;52.502;9.860;2024-02-21T10:02:32;11.60;;;6.57;;
71288;SDS011;59068;52.502;9.860;2024-02-21T10:04:59;12.23;;;6.33;;
71288;SDS011;59068;52.502;9.860;2024-02-21T10:07:27;8.80;;;5.37;;
71288;SDS011;59068;52.502;9.860;2024-02-21T10:10:00;7.83;;;6.03;;
71288;SDS011;59068;52.502;9.860;2024-02-21T10:12:26;8.30;;;5.87;;
71288;SDS011;59068;52.502;9.860;2024-02-21T10:14:59;10.87;;;5.17;;
71288;SDS011;59068;52.502;9.860;2024-02-21T10:17:26;6.90;;;5.70;;
71288;SDS011;59068;52.502;9.860;2024-02-21T10:19:52;7.67;;;4.73;;
71288;SDS011;59068;52.502;9.860;2024-02-21T10:22:18;7.13;;;5.10;;
71288;SDS011;59068;52.502;9.860;2024-02-21T10:24:47;6.73;;;4.50;;
71288;SDS011;59068;52.502;9.860;2024-02-21T10:27:14;5.03;;;4.63;;
71288;SDS011;59068;52.502;9.860;2024-02-21T10:29:40;8.20;;;4.73;;
71288;SDS011;59068;52.502;9.860;2024-02-21T10:32:08;6.20;;;4.43;;
71288;SDS011;59068;52.502;9.860;2024-02-21T10:34:35;7.90;;;4.80;;
71288;SDS011;59068;52.502;9.860;2024-02-21T10:37:02;5.43;;;4.60;;
71288;SDS011;59068;52.502;9.860;2024-02-21T10:39:29;5.53;;;4.80;;
71288;SDS011;59068;52.502;9.860;2024-02-21T10:41:59;5.60;;;4.47;;
71288;SDS011;59068;52.502;9.860;2024-02-21T10:44:26;5.87;;;4.47;;
71288;SDS011;59068;52.502;9.860;2024-02-21T10:46:54;7.33;;;4.27;;
71288;SDS011;59068;52.502;9.860;2024-02-21T10:49:22;9.10;;;4.47;;
71288;SDS011;59068;52.502;9.860;2024-02-21T10:51:50;5.23;;;4.03;;
71288;SDS011;59068;52.502;9.860;2024-02-21T10:54:27;7.87;;;3.97;;
71288;SDS011;59068;52.502;9.860;2024-02-21T10:56:54;6.50;;;4.20;;
71288;SDS011;59068;52.502;9.860;2024-02-21T10:59:25;5.43;;;3.40;;
71288;SDS011;59068;52.502;9.860;2024-02-21T11:01:54;5.70;;;3.80;;
71288;SDS011;59068;52.502;9.860;2024-02-21T11:04:22;7.87;;;3.83;;
71288;SDS011;59068;52.502;9.860;2024-02-21T11:06:50;5.93;;;3.40;;
71288;SDS011;59068;52.502;9.860;2024-02-21T11:09:19;6.13;;;2.80;;
71288;SDS011;59068;52.502;9.860;2024-02-21T11:11:56;7.47;;;3.20;;
71288;SDS011;59068;52.502;9.860;2024-02-21T11:14:26;4.73;;;3.07;;
71288;SDS011;59068;52.502;9.860;2024-02-21T11:16:53;5.40;;;3.10;;
71288;SDS011;59068;52.502;9.860;2024-02-21T11:19:21;3.70;;;2.83;;
71288;SDS011;59068;52.502;9.860;2024-02-21T11:21:48;7.30;;;2.97;;
71288;SDS011;59068;52.502;9.860;2024-02-21T11:24:25;5.17;;;2.70;;
71288;SDS011;59068;52.502;9.860;2024-02-21T11:26:51;3.53;;;2.67;;
71288;SDS011;59068;52.502;9.860;2024-02-21T11:29:22;4.60;;;2.53;;
71288;SDS011;59068;52.502;9.860;2024-02-21T11:31:50;5.53;;;2.77;;
71288;SDS011;59068;52.502;9.860;2024-02-21T11:34:17;4.00;;;2.43;;
71288;SDS011;59068;52.502;9.860;2024-02-21T11:36:49;7.30;;;2.70;;
71288;SDS011;59068;52.502;9.860;2024-02-21T11:39:20;4.43;;;2.30;;
71288;SDS011;59068;52.502;9.860;2024-02-21T11:41:47;6.90;;;2.50;;
71288;SDS011;59068;52.502;9.860;2024-02-21T11:44:14;6.43;;;3.27;;
71288;SDS011;59068;52.502;9.860;2024-02-21T11:46:40;3.20;;;2.80;;
71288;SDS011;59068;52.502;9.860;2024-02-21T11:49:10;3.57;;;2.17;;
71288;SDS011;59068;52.502;9.860;2024-02-21T11:51:38;4.03;;;2.50;;
71288;SDS011;59068;52.502;9.860;2024-02-21T11:54:05;4.20;;;2.20;;
71288;SDS011;59068;52.502;9.860;2024-02-21T11:56:32;3.93;;;2.23;;
71288;SDS011;59068;52.502;9.860;2024-02-21T11:58:59;2.43;;;1.70;;
71288;SDS011;59068;52.502;9.860;2024-02-21T12:01:27;3.37;;;2.23;;
71288;SDS011;59068;52.502;9.860;2024-02-21T12:03:53;3.63;;;1.97;;
71288;SDS011;59068;52.502;9.860;2024-02-21T12:06:24;3.30;;;1.90;;
71288;SDS011;59068;52.502;9.860;2024-02-21T12:08:57;2.80;;;1.50;;
71288;SDS011;59068;52.502;9.860;2024-02-21T12:11:26;4.13;;;1.80;;
71288;SDS011;59068;52.502;9.860;2024-02-21T12:14:00;2.87;;;1.73;;
71288;SDS011;59068;52.502;9.860;2024-02-21T12:16:28;3.83;;;1.70;;
71288;SDS011;59068;52.502;9.860;2024-02-21T12:18:55;2.03;;;1.60;;
71288;SDS011;59068;52.502;9.860;2024-02-21T12:21:24;4.03;;;2.10;;
71288;SDS011;59068;52.502;9.860;2024-02-21T12:23:53;3.10;;;1.40;;
71288;SDS011;59068;52.502;9.860;2024-02-21T12:26:19;2.47;;;1.80;;
71288;SDS011;59068;52.502;9.860;2024-02-21T12:28:46;2.17;;;1.60;;
71288;SDS011;59068;52.502;9.860;2024-02-21T12:31:12;2.50;;;1.77;;
71288;SDS011;59068;52.502;9.860;2024-02-21T12:33:39;2.37;;;1.90;;
71288;SDS011;59068;52.502;9.860;2024-02-21T12:36:05;1.87;;;1.33;;
71288;SDS011;59068;52.502;9.860;2024-02-21T12:38:35;2.93;;;1.50;;
71288;SDS011;59068;52.502;9.860;2024-02-21T12:41:01;4.20;;;1.77;;
71288;SDS011;59068;52.502;9.860;2024-02-21T12:43:28;2.17;;;1.60;;
71288;SDS011;59068;52.502;9.860;2024-02-21T12:45:54;3.13;;;2.00;;
71288;SDS011;59068;52.502;9.860;2024-02-21T12:48:21;3.90;;;2.30;;
71288;SDS011;59068;52.502;9.860;2024-02-21T12:50:48;3.03;;;2.30;;
71288;SDS011;59068;52.502;9.860;2024-02-21T12:53:15;4.57;;;2.10;;
71288;SDS011;59068;52.502;9.860;2024-02-21T12:55:43;5.30;;;2.57;;
71288;SDS011;59068;52.502;9.860;2024-02-21T12:58:09;3.17;;;2.53;;
71288;SDS011;59068;52.502;9.860;2024-02-21T13:00:35;6.27;;;2.80;;
71288;SDS011;59068;52.502;9.860;2024-02-21T13:03:02;2.63;;;2.20;;
71288;SDS011;59068;52.502;9.860;2024-02-21T13:05:29;3.57;;;2.50;;
71288;SDS011;59068;52.502;9.860;2024-02-21T13:07:58;4.30;;;2.87;;
71288;SDS011;59068;52.502;9.860;2024-02-21T13:10:24;4.43;;;2.67;;
71288;SDS011;59068;52.502;9.860;2024-02-21T13:12:52;4.33;;;3.20;;
71288;SDS011;59068;52.502;9.860;2024-02-21T13:15:19;3.93;;;2.83;;
71288;SDS011;59068;52.502;9.860;2024-02-21T13:17:46;3.87;;;2.80;;
71288;SDS011;59068;52.502;9.860;2024-02-21T13:20:13;6.93;;;3.47;;
71288;SDS011;59068;52.502;9.860;2024-02-21T13:22:39;6.37;;;3.53;;
71288;SDS011;59068;52.502;9.860;2024-02-21T13:25:06;5.20;;;3.70;;
71288;SDS011;59068;52.502;9.860;2024-02-21T13:27:33;6.27;;;3.80;;
71288;SDS011;59068;52.502;9.860;2024-02-21T13:30:02;6.97;;;4.40;;
71288;SDS011;59068;52.502;9.860;2024-02-21T13:32:30;6.40;;;3.77;;
71288;SDS011;59068;52.502;9.860;2024-02-21T13:34:57;5.40;;;3.53;;
71288;SDS011;59068;52.502;9.860;2024-02-21T13:37:26;7.80;;;4.70;;
71288;SDS011;59068;52.502;9.860;2024-02-21T13:39:56;6.10;;;4.13;;
71288;SDS011;59068;52.502;9.860;2024-02-21T13:42:23;4.73;;;4.10;;
71288;SDS011;59068;52.502;9.860;2024-02-21T13:44:52;5.27;;;4.00;;
71288;SDS011;59068;52.502;9.860;2024-02-21T13:47:25;7.27;;;4.73;;
71288;SDS011;59068;52.502;9.860;2024-02-21T13:49:54;5.27;;;4.57;;
71288;SDS011;59068;52.502;9.860;2024-02-21T13:52:20;7.30;;;3.97;;
71288;SDS011;59068;52.502;9.860;2024-02-21T13:54:46;8.40;;;5.03;;
71288;SDS011;59068;52.502;9.860;2024-02-21T13:57:13;5.47;;;4.10;;
71288;SDS011;59068;52.502;9.860;2024-02-21T13:59:39;6.27;;;4.30;;
71288;SDS011;59068;52.502;9.860;2024-02-21T14:02:09;5.00;;;4.13;;
71288;SDS011;59068;52.502;9.860;2024-02-21T14:04:40;4.20;;;3.53;;
71288;SDS011;59068;52.502;9.860;2024-02-21T14:07:10;7.30;;;3.93;;
71288;SDS011;59068;52.502;9.860;2024-02-21T14:09:38;4.83;;;3.80;;
71288;SDS011;59068;52.502;9.860;2024-02-21T14:12:05;3.87;;;3.47;;
71288;SDS011;59068;52.502;9.860;2024-02-21T14:14:33;4.13;;;3.00;;
71288;SDS011;59068;52.502;9.860;2024-02-21T14:16:59;5.97;;;3.40;;
71288;SDS011;59068;52.502;9.860;2024-02-21T14:19:26;4.23;;;3.40;;
71288;SDS011;59068;52.502;9.860;2024-02-21T14:21:54;4.53;;;3.67;;
71288;SDS011;59068;52.502;9.860;2024-02-21T14:24:21;6.07;;;3.87;;
71288;SDS011;59068;52.502;9.860;2024-02-21T14:26:48;7.33;;;3.40;;
71288;SDS011;59068;52.502;9.860;2024-02-21T14:29:14;4.37;;;2.73;;
71288;SDS011;59068;52.502;9.860;2024-02-21T14:31:41;5.57;;;3.27;;